Time;durP1;ratioP1;P1;durP2;ratioP2;P2;SDS_P1;SDS_P2;PMS_P1;PMS_P2;Temp;Humidity;BMP_temperature;BMP_pressure;BME280_temperature;BME280_humidity;BME280_pressure;Samples;Min_cycle;Max_cycle;Signal;HPM_P1;HPM_P2
2021/03/18 00:02:05;;;;;;;2.75;2.45;;;;;;;6.41;64.86;100203.41;5035250;28;20124;-69
2021/03/18 00:04:30;;;;;;;2.47;2.28;;;;;;;6.39;63.58;100200.19;5035227;28;20116;-69
2021/03/18 00:06:56;;;;;;;3.03;2.40;;;;;;;6.39;63.56;100188.31;5035478;28;20052;-69
2021/03/18 00:09:22;;;;;;;2.33;2.03;;;;;;;6.36;62.68;100183.47;5035093;28;20036;-70
2021/03/18 00:11:50;;;;;;;3.25;2.25;;;;;;;6.55;62.35;100186.56;5037967;28;20029;-71
2021/03/18 00:14:19;;;;;;;2.65;1.90;;;;;;;6.55;61.45;100183.81;5038225;28;20021;-71
2021/03/18 00:16:48;;;;;;;2.50;2.30;;;;;;;6.58;61.89;100191.44;5035479;28;20091;-71
2021/03/18 00:19:15;;;;;;;3.50;1.92;;;;;;;6.59;61.15;100190.28;5035581;28;20025;-71
2021/03/18 00:21:41;;;;;;;3.10;1.85;;;;;;;6.59;62.03;100189.47;5035205;28;20472;-70
2021/03/18 00:24:08;;;;;;;2.33;1.77;;;;;;;6.24;62.62;100149.06;5034871;28;20022;-70
2021/03/18 00:26:34;;;;;;;1.77;1.63;;;;;;;6.43;64.18;100178.22;5034834;28;20025;-69
2021/03/18 00:29:00;;;;;;;2.65;2.45;;;;;;;6.47;63.26;100168.09;5035353;28;20060;-70
2021/03/18 00:31:29;;;;;;;3.13;2.22;;;;;;;6.54;61.70;100171.13;5034696;28;20061;-70
2021/03/18 00:33:55;;;;;;;4.72;2.70;;;;;;;6.57;61.43;100162.19;5034979;28;20384;-69
2021/03/18 00:36:22;;;;;;;3.75;2.50;;;;;;;6.50;61.54;100156.38;5018529;28;20033;-70
2021/03/18 00:38:48;;;;;;;4.00;2.75;;;;;;;6.44;62.34;100168.75;5034644;28;20080;-69
2021/03/18 00:41:14;;;;;;;2.72;2.53;;;;;;;6.47;61.83;100157.84;5034474;28;20452;-71
2021/03/18 00:43:40;;;;;;;2.95;2.28;;;;;;;6.46;60.99;100161.78;5035602;28;20026;-69
2021/03/18 00:46:09;;;;;;;2.28;1.98;;;;;;;6.50;60.89;100167.44;5036931;28;20025;-70
2021/03/18 00:48:38;;;;;;;2.78;2.20;;;;;;;6.50;59.53;100153.63;5034659;28;20071;-70
2021/03/18 00:51:07;;;;;;;5.50;3.95;;;;;;;6.64;58.88;100158.88;5035579;28;20116;-71
2021/03/18 00:53:39;;;;;;;5.13;3.88;;;;;;;6.73;57.91;100149.38;5034244;28;20476;-69
2021/03/18 00:56:08;;;;;;;5.82;3.70;;;;;;;6.64;58.23;100156.91;5034253;28;20040;-69
2021/03/18 00:58:35;;;;;;;2.45;2.00;;;;;;;6.52;57.38;100146.59;5035020;28;20372;-70
2021/03/18 01:01:03;;;;;;;3.30;1.98;;;;;;;6.61;57.31;100146.53;5034141;28;20029;-70
2021/03/18 01:03:32;;;;;;;2.45;2.25;;;;;;;6.68;56.71;100140.47;5034119;28;20041;-69
2021/03/18 01:06:08;;;;;;;2.28;1.83;;;;;;;6.75;57.27;100129.66;5034351;28;20044;-69
2021/03/18 01:08:34;;;;;;;2.85;1.90;;;;;;;6.71;55.43;100135.09;5034052;28;20025;-69
2021/03/18 01:11:06;;;;;;;2.40;2.10;;;;;;;6.68;53.84;100130.22;5033839;28;20068;-69
2021/03/18 01:13:32;;;;;;;1.70;1.60;;;;;;;6.62;51.93;100128.00;5033897;28;20029;-69
2021/03/18 01:16:04;;;;;;;1.90;1.50;;;;;;;6.73;52.56;100129.22;5034381;28;20048;-69
2021/03/18 01:19:00;;;;;;;2.53;2.10;;;;;;;6.88;54.90;100116.72;5033825;28;20048;-69
2021/03/18 01:21:41;;;;;;;2.33;2.13;;;;;;;6.91;55.70;100113.25;5034562;28;20128;-69
2021/03/18 01:24:08;;;;;;;2.72;2.47;;;;;;;6.96;55.48;100099.22;5033720;28;20033;-69
2021/03/18 01:26:34;;;;;;;2.10;1.90;;;;;;;7.00;55.37;100089.91;5033676;28;20033;-69
2021/03/18 01:29:00;;;;;;;2.80;1.85;;;;;;;6.97;52.98;100087.81;5033914;28;20029;-69
2021/03/18 01:31:26;;;;;;;2.33;2.13;;;;;;;7.08;54.18;100088.19;5036228;28;20483;-69
2021/03/18 01:33:52;;;;;;;1.55;1.40;;;;;;;7.04;53.48;100085.31;5037611;28;20041;-69
2021/03/18 01:36:17;;;;;;;1.90;1.33;;;;;;;7.03;54.31;100086.47;5036766;28;20391;-69
2021/03/18 01:38:45;;;;;;;1.90;1.60;;;;;;;6.99;52.29;100084.72;5037511;28;20171;-69
2021/03/18 01:41:12;;;;;;;2.05;1.85;;;;;;;7.00;53.71;100080.78;5036983;28;20478;-69
2021/03/18 01:43:38;;;;;;;2.22;2.03;;;;;;;7.06;53.29;100073.88;5036598;28;20032;-69
2021/03/18 01:46:05;;;;;;;2.15;1.95;;;;;;;7.06;54.61;100085.75;5036622;28;20463;-69
2021/03/18 01:48:31;;;;;;;1.95;1.83;;;;;;;6.99;54.67;100073.66;5036536;28;20040;-69
2021/03/18 01:50:58;;;;;;;2.60;2.30;;;;;;;6.99;55.26;100081.94;5036408;28;20025;-69
2021/03/18 01:53:25;;;;;;;3.88;1.75;;;;;;;6.95;54.79;100070.75;5035698;28;20032;-69
2021/03/18 01:55:55;;;;;;;5.10;2.50;;;;;;;6.92;55.83;100079.72;5036444;28;20053;-69
2021/03/18 01:58:21;;;;;;;4.40;3.03;;;;;;;6.94;55.67;100076.63;5037195;28;20112;-69
2021/03/18 02:00:55;;;;;;;2.70;2.50;;;;;;;6.91;55.94;100071.78;5036396;28;20391;-69
2021/03/18 02:03:21;;;;;;;2.47;2.13;;;;;;;6.92;55.78;100076.16;5036247;28;20083;-69
2021/03/18 02:05:47;;;;;;;2.78;2.28;;;;;;;7.00;55.44;100073.31;5036296;28;20033;-69
2021/03/18 02:08:13;;;;;;;2.15;1.95;;;;;;;6.94;55.48;100060.03;5036444;28;20456;-69
2021/03/18 02:10:39;;;;;;;2.00;1.83;;;;;;;6.92;55.82;100056.78;5036290;28;20032;-69
2021/03/18 02:13:06;;;;;;;1.88;1.50;;;;;;;6.85;54.58;100051.00;5036155;28;20033;-69
2021/03/18 02:15:46;;;;;;;3.05;1.50;;;;;;;6.80;55.26;100055.59;5036117;28;20082;-69
2021/03/18 02:18:23;;;;;;;1.52;1.42;;;;;;;6.79;55.06;100048.47;5036125;28;20028;-69
2021/03/18 02:21:26;;;;;;;1.73;1.40;;;;;;;6.80;54.71;100050.06;5036266;28;20506;-69
2021/03/18 02:24:12;;;;;;;1.95;1.73;;;;;;;6.83;54.30;100038.34;5036795;28;20029;-69
2021/03/18 02:26:38;;;;;;;2.45;2.25;;;;;;;6.76;54.29;100038.06;5035506;28;20029;-69
2021/03/18 02:29:54;;;;;;;2.20;2.00;;;;;;;6.84;54.75;100022.53;5037003;28;20029;-69
2021/03/18 02:32:32;;;;;;;3.47;2.25;;;;;;;6.79;54.67;100031.88;5037148;28;20079;-69
2021/03/18 02:35:34;;;;;;;3.88;2.47;;;;;;;6.90;54.21;100021.19;5035892;28;20040;-69
2021/03/18 02:38:23;;;;;;;3.08;2.05;;;;;;;6.88;53.58;100023.50;5036086;28;20036;-69
2021/03/18 02:40:54;;;;;;;2.10;1.83;;;;;;;6.83;53.37;100007.91;5034677;28;20464;-70
2021/03/18 02:43:23;;;;;;;2.13;1.90;;;;;;;6.81;53.99;100021.25;5035755;28;20033;-71
2021/03/18 02:45:56;;;;;;;2.80;1.85;;;;;;;6.78;54.21;100021.97;5035776;28;20064;-69
2021/03/18 02:48:25;;;;;;;2.58;1.73;;;;;;;6.86;53.28;100019.44;5036307;28;20033;-70
2021/03/18 02:50:52;;;;;;;1.95;1.65;;;;;;;6.89;53.02;100018.75;5035667;28;20128;-70
2021/03/18 02:53:19;;;;;;;2.85;2.33;;;;;;;6.90;52.81;100017.59;5036461;28;20059;-69
2021/03/18 02:55:49;;;;;;;2.35;2.13;;;;;;;6.80;53.03;100016.88;5053565;28;20075;-71
2021/03/18 02:58:21;;;;;;;2.95;1.85;;;;;;;6.82;52.71;100019.31;5035938;28;20102;-71
2021/03/18 03:00:48;;;;;;;2.03;1.50;;;;;;;6.92;52.85;100018.06;5035779;28;20078;-69
2021/03/18 03:03:16;;;;;;;2.45;1.70;;;;;;;6.82;53.52;100009.06;5036200;28;20048;-70
2021/03/18 03:05:45;;;;;;;1.85;1.65;;;;;;;6.82;53.12;100020.13;5040149;28;20087;-70
2021/03/18 03:08:11;;;;;;;1.30;1.20;;;;;;;6.86;52.87;100013.91;5040004;28;20037;-69
2021/03/18 03:10:38;;;;;;;2.08;1.60;;;;;;;6.88;52.86;100023.50;5040496;28;20490;-69
2021/03/18 03:13:05;;;;;;;1.70;1.60;;;;;;;6.82;52.85;100014.59;5023700;28;20056;-69
2021/03/18 03:15:32;;;;;;;18.50;12.38;;;;;;;6.89;52.66;100018.75;5023644;28;20049;-69
2021/03/18 03:18:02;;;;;;;14.30;9.48;;;;;;;6.85;52.87;100013.09;5039666;28;20039;-69
2021/03/18 03:20:28;;;;;;;11.05;8.20;;;;;;;6.81;53.04;100012.97;5039780;28;20027;-70
2021/03/18 03:22:55;;;;;;;10.30;8.32;;;;;;;6.84;53.88;100005.94;5023102;28;20472;-69
2021/03/18 03:25:22;;;;;;;8.45;7.55;;;;;;;6.82;53.56;100013.81;5039541;28;20467;-69
2021/03/18 03:27:48;;;;;;;8.82;7.82;;;;;;;6.88;54.13;100006.09;5039171;28;20087;-69
2021/03/18 03:30:15;;;;;;;5.57;4.72;;;;;;;6.95;53.39;100007.13;5038888;28;20032;-69
2021/03/18 03:32:46;;;;;;;4.05;3.33;;;;;;;6.86;54.44;100011.13;5035559;28;20068;-70
2021/03/18 03:35:16;;;;;;;5.47;4.63;;;;;;;6.89;54.27;100007.69;5035902;28;20021;-70
2021/03/18 03:37:43;;;;;;;6.53;4.40;;;;;;;6.90;54.19;100007.34;5037125;28;20356;-70
2021/03/18 03:40:11;;;;;;;3.92;2.67;;;;;;;6.97;52.68;100017.84;5036391;28;20037;-70
2021/03/18 03:42:37;;;;;;;1.88;1.77;;;;;;;6.85;53.36;100012.28;5035939;28;20029;-70
2021/03/18 03:45:06;;;;;;;6.25;4.32;;;;;;;6.73;52.70;100021.38;5035623;28;20533;-70
2021/03/18 03:47:32;;;;;;;14.70;8.32;;;;;;;6.72;53.47;100008.69;5019328;28;20476;-70
2021/03/18 03:49:58;;;;;;;14.70;8.25;;;;;;;6.74;54.85;100007.19;5035512;28;20021;-70
2021/03/18 03:52:32;;;;;;;10.02;5.80;;;;;;;6.85;55.04;100009.53;5035692;28;20026;-70
2021/03/18 03:55:12;;;;;;;10.45;6.25;;;;;;;6.88;55.68;100012.44;5035463;28;20029;-70
2021/03/18 03:57:52;;;;;;;9.02;5.90;;;;;;;6.84;56.25;100003.19;5035399;28;20061;-70
2021/03/18 04:00:21;;;;;;;8.30;5.45;;;;;;;6.88;56.39;100008.84;5035905;28;20025;-70
2021/03/18 04:02:47;;;;;;;5.43;4.90;;;;;;;7.03;55.62;100011.78;5035336;28;20116;-70
2021/03/18 04:05:14;;;;;;;4.28;3.88;;;;;;;7.02;56.00;100017.63;5035989;28;20033;-70
2021/03/18 04:07:40;;;;;;;4.68;3.83;;;;;;;6.91;56.03;99999.84;5035501;28;20041;-70
2021/03/18 04:10:07;;;;;;;5.30;3.72;;;;;;;6.93;55.68;100003.91;5035808;28;20022;-70
2021/03/18 04:12:37;;;;;;;3.30;2.53;;;;;;;6.91;56.20;100010.91;5035010;28;20029;-70
2021/03/18 04:15:09;;;;;;;2.85;2.45;;;;;;;6.88;56.44;100003.31;5035008;28;20037;-70
2021/03/18 04:17:40;;;;;;;1.48;1.38;;;;;;;6.90;56.21;100009.31;5034996;28;20175;-70
2021/03/18 04:20:09;;;;;;;2.03;1.40;;;;;;;6.95;55.68;100009.09;5036313;28;20485;-70
2021/03/18 04:22:35;;;;;;;2.10;1.45;;;;;;;6.93;57.55;100014.97;5019014;28;20042;-70
2021/03/18 04:25:02;;;;;;;1.33;1.23;;;;;;;6.87;58.55;100024.66;5036735;28;20032;-70
2021/03/18 04:27:30;;;;;;;2.55;1.38;;;;;;;6.89;58.59;100016.81;5035358;28;20065;-70
2021/03/18 04:29:58;;;;;;;1.55;1.20;;;;;;;6.68;58.46;100000.25;5035280;28;20029;-70
2021/03/18 04:32:25;;;;;;;3.50;1.23;;;;;;;6.76;59.05;100024.25;5046674;28;20049;-70
2021/03/18 04:34:53;;;;;;;1.45;1.02;;;;;;;6.76;58.79;100015.13;5037758;28;20071;-70
2021/03/18 04:37:20;;;;;;;1.40;1.30;;;;;;;6.77;58.36;100012.06;5021531;28;20033;-70
2021/03/18 04:39:46;;;;;;;1.00;0.98;;;;;;;6.76;58.48;100004.06;5037969;28;20038;-70
2021/03/18 04:42:14;;;;;;;1.40;1.10;;;;;;;6.75;57.49;100005.22;5038403;28;20095;-70
2021/03/18 04:44:42;;;;;;;3.50;1.58;;;;;;;6.80;57.84;100005.81;5037816;28;20037;-70
2021/03/18 04:47:08;;;;;;;2.85;1.98;;;;;;;6.78;58.61;100005.38;5039337;28;20060;-70
2021/03/18 04:49:35;;;;;;;4.55;3.50;;;;;;;6.77;59.04;100003.75;5025315;28;20052;-70
2021/03/18 04:52:01;;;;;;;5.93;4.72;;;;;;;6.77;59.14;100003.75;5038244;28;20037;-70
2021/03/18 04:54:27;;;;;;;8.75;6.82;;;;;;;6.82;59.25;99997.22;5037682;28;20352;-70
2021/03/18 04:56:55;;;;;;;15.98;10.45;;;;;;;6.89;58.89;99996.63;5037743;28;20036;-70
2021/03/18 04:59:22;;;;;;;9.95;8.40;;;;;;;6.89;58.92;99994.69;5038288;28;20425;-70
2021/03/18 05:01:50;;;;;;;5.75;5.07;;;;;;;6.95;57.96;100003.56;5037695;28;20380;-70
2021/03/18 05:04:18;;;;;;;4.43;3.20;;;;;;;6.95;58.11;100000.78;5055358;28;20029;-70
2021/03/18 05:06:52;;;;;;;3.50;2.25;;;;;;;6.94;58.19;100001.94;5037358;28;20029;-70
2021/03/18 05:09:19;;;;;;;2.47;1.98;;;;;;;6.92;58.49;99995.94;5037361;28;20021;-70
2021/03/18 05:11:47;;;;;;;1.85;1.33;;;;;;;7.00;58.41;100008.88;5037920;28;20025;-70
2021/03/18 05:14:13;;;;;;;1.42;1.20;;;;;;;7.00;58.01;100009.69;5037254;28;20025;-70
2021/03/18 05:16:39;;;;;;;1.77;1.50;;;;;;;6.94;56.69;100008.28;5037530;28;20036;-70
2021/03/18 05:19:10;;;;;;;2.08;1.70;;;;;;;6.92;56.45;100012.53;5038013;28;20025;-70
2021/03/18 05:21:38;;;;;;;2.38;1.52;;;;;;;6.88;56.12;100006.91;5037441;28;20119;-70
2021/03/18 05:24:05;;;;;;;1.58;1.48;;;;;;;6.88;55.74;100001.38;5037060;28;20063;-70
2021/03/18 05:26:31;;;;;;;2.25;1.52;;;;;;;6.99;55.11;100013.59;5037312;28;20029;-70
2021/03/18 05:28:56;;;;;;;2.63;1.65;;;;;;;6.95;55.21;100017.38;5037038;28;20071;-70
2021/03/18 05:31:23;;;;;;;1.65;1.50;;;;;;;6.95;55.76;100023.72;5036615;28;20033;-70
2021/03/18 05:33:50;;;;;;;3.75;1.67;;;;;;;7.08;55.40;100032.84;5036872;28;20036;-70
2021/03/18 05:36:16;;;;;;;3.72;1.40;;;;;;;7.05;54.84;100033.56;5037666;28;20037;-70
2021/03/18 05:38:42;;;;;;;1.67;1.35;;;;;;;7.05;54.78;100036.31;5038487;28;20032;-70
2021/03/18 05:41:08;;;;;;;1.70;1.60;;;;;;;7.07;54.84;100031.22;5036913;28;20456;-70
2021/03/18 05:43:33;;;;;;;1.92;1.58;;;;;;;7.04;54.78;100027.22;5037072;28;20040;-70
2021/03/18 05:46:02;;;;;;;2.42;1.63;;;;;;;7.07;55.18;100032.03;5036436;28;20463;-70
2021/03/18 05:48:30;;;;;;;1.80;1.70;;;;;;;7.10;55.55;100022.25;5036430;28;20116;-70
2021/03/18 05:50:56;;;;;;;2.00;1.90;;;;;;;7.17;54.66;100030.00;5036328;28;20091;-70
2021/03/18 05:53:23;;;;;;;3.30;3.00;;;;;;;7.23;54.43;100017.53;5036320;28;20079;-70
2021/03/18 05:55:51;;;;;;;4.82;3.38;;;;;;;7.24;56.54;100008.88;5036561;28;20045;-70
2021/03/18 05:58:20;;;;;;;7.63;6.93;;;;;;;7.25;56.04;100016.06;5054113;28;20021;-70
2021/03/18 06:00:48;;;;;;;7.65;5.57;;;;;;;7.35;55.85;100018.38;5036187;28;20060;-70
2021/03/18 06:03:17;;;;;;;6.97;4.95;;;;;;;7.39;55.95;100014.91;5054629;28;20025;-70
2021/03/18 06:05:44;;;;;;;6.65;5.30;;;;;;;7.50;55.40;100014.09;5020359;28;20029;-70
2021/03/18 06:08:09;;;;;;;12.60;6.13;;;;;;;7.53;54.80;100016.19;5036552;28;20363;-70
2021/03/18 06:10:35;;;;;;;5.10;4.60;;;;;;;7.52;55.65;100027.59;5035995;28;20029;-70
2021/03/18 06:13:01;;;;;;;7.68;5.50;;;;;;;7.56;55.22;100023.81;5036478;28;20032;-70
2021/03/18 06:15:27;;;;;;;8.98;6.28;;;;;;;7.59;54.55;100028.63;5036523;28;20459;-70
2021/03/18 06:17:54;;;;;;;5.30;3.95;;;;;;;7.65;54.44;100033.94;5035951;28;20443;-70
2021/03/18 06:20:23;;;;;;;4.65;4.07;;;;;;;7.70;54.03;100030.94;5019680;28;20037;-70
2021/03/18 06:22:53;;;;;;;5.05;4.05;;;;;;;7.74;53.25;100027.13;5036127;28;20033;-70
2021/03/18 06:25:33;;;;;;;10.80;9.05;;;;;;;7.79;53.98;100023.31;5035824;28;20029;-70
2021/03/18 06:28:22;;;;;;;25.90;19.52;;;;;;;7.87;53.31;100025.16;5054143;28;20029;-70
2021/03/18 06:31:09;;;;;;;24.92;19.15;;;;;;;7.95;51.45;100028.97;5036172;28;20036;-70
2021/03/18 06:33:42;;;;;;;17.60;12.68;;;;;;;7.98;51.17;100020.72;5012871;28;20488;-70
2021/03/18 06:36:27;;;;;;;18.38;11.98;;;;;;;8.06;49.94;100019.81;5013850;28;20033;-70
2021/03/18 06:38:57;;;;;;;12.43;9.60;;;;;;;8.10;48.23;100028.25;5012999;28;20465;-70
2021/03/18 06:41:31;;;;;;;9.38;5.85;;;;;;;8.16;48.67;100037.91;5012775;28;20037;-70
2021/03/18 06:43:56;;;;;;;;;;;;;;;8.26;47.12;100031.88;5012985;28;20040;-70
2021/03/18 06:46:22;;;;;;;5.05;4.00;;;;;;;8.29;47.03;100025.63;5012724;28;19914;-70
2021/03/18 06:48:50;;;;;;;3.67;3.30;;;;;;;8.37;47.28;100027.50;5013388;28;20125;-70
2021/03/18 06:51:27;;;;;;;3.03;2.67;;;;;;;8.49;46.64;100020.28;5012589;28;20037;-70
2021/03/18 06:53:54;;;;;;;4.32;2.85;;;;;;;8.74;46.07;100021.78;5013185;28;20034;-70
2021/03/18 06:56:31;;;;;;;5.82;2.30;;;;;;;8.93;44.09;100019.13;5012797;28;20376;-70
2021/03/18 06:58:58;;;;;;;3.63;2.05;;;;;;;9.12;43.07;100017.66;5014382;28;20022;-70
2021/03/18 07:01:26;;;;;;;2.95;2.20;;;;;;;9.37;42.59;100024.63;5013155;28;20413;-70
2021/03/18 07:04:01;;;;;;;2.13;1.92;;;;;;;9.47;41.82;100022.47;5013102;28;20129;-70
2021/03/18 07:06:34;;;;;;;3.10;2.20;;;;;;;9.75;41.87;100023.19;5015028;28;20030;-70
2021/03/18 07:09:18;;;;;;;2.92;2.00;;;;;;;9.76;42.01;100015.66;5017353;28;20034;-70
2021/03/18 07:11:49;;;;;;;2.80;2.60;;;;;;;9.81;41.83;100027.28;5013178;28;20494;-70
2021/03/18 07:14:32;;;;;;;6.93;6.22;;;;;;;9.83;42.66;100024.13;5012468;28;20030;-70
2021/03/18 07:16:58;;;;;;;5.35;4.55;;;;;;;9.87;42.50;100017.50;5013491;28;20076;-69
2021/03/18 07:19:28;;;;;;;4.03;3.25;;;;;;;9.87;42.17;100020.28;5012467;28;20034;-70
2021/03/18 07:21:58;;;;;;;2.58;2.38;;;;;;;9.85;41.45;100024.56;5012440;28;20456;-70
2021/03/18 07:24:32;;;;;;;7.03;4.75;;;;;;;9.86;42.34;100023.44;5012987;28;20040;-70
2021/03/18 07:27:10;;;;;;;9.73;7.63;;;;;;;9.85;43.47;100033.72;5013431;28;20476;-70
2021/03/18 07:29:40;;;;;;;9.15;5.18;;;;;;;9.78;42.52;100025.22;5012355;28;20555;-70
2021/03/18 07:32:06;;;;;;;3.25;2.25;;;;;;;9.67;42.06;100032.50;5020267;28;20549;-69
2021/03/18 07:34:32;;;;;;;4.38;3.75;;;;;;;9.73;43.65;100031.06;5032560;28;20033;-69
2021/03/18 07:37:00;;;;;;;9.63;6.68;;;;;;;9.65;43.74;100034.84;5032069;28;20033;-69
2021/03/18 07:39:28;;;;;;;3.70;3.15;;;;;;;9.65;43.75;100037.63;5032381;28;20372;-70
2021/03/18 07:41:56;;;;;;;5.70;2.67;;;;;;;9.64;43.87;100041.53;5032480;28;20056;-69
2021/03/18 07:44:26;;;;;;;4.03;2.78;;;;;;;9.53;43.67;100038.50;5031835;28;20029;-69
2021/03/18 07:46:52;;;;;;;2.90;1.98;;;;;;;9.52;44.36;100036.88;5031917;28;20455;-69
2021/03/18 07:49:27;;;;;;;4.60;2.35;;;;;;;9.56;43.07;100045.31;5031825;28;20033;-69
2021/03/18 07:51:57;;;;;;;4.80;2.67;;;;;;;9.40;43.04;100029.47;5034283;28;20037;-69
2021/03/18 07:54:24;;;;;;;4.10;2.53;;;;;;;9.51;43.32;100034.47;5035849;28;20067;-69
2021/03/18 07:56:53;;;;;;;5.20;3.00;;;;;;;9.50;43.81;100039.22;5035675;28;20033;-69
2021/03/18 07:59:36;;;;;;;5.40;3.30;;;;;;;9.48;43.30;100040.75;5035604;28;20615;-69
2021/03/18 08:02:31;;;;;;;4.65;3.95;;;;;;;9.46;43.42;100043.88;5035743;28;20037;-70
2021/03/18 08:04:57;;;;;;;4.95;2.80;;;;;;;9.50;43.48;100043.97;5028306;28;20037;-70
2021/03/18 08:07:46;;;;;;;5.70;2.60;;;;;;;9.56;42.39;100042.53;5036563;28;20030;-70
2021/03/18 08:10:15;;;;;;;3.47;2.70;;;;;;;9.63;43.67;100048.25;5035187;28;20025;-69
2021/03/18 08:12:55;;;;;;;3.67;2.20;;;;;;;9.81;43.84;100052.28;5035596;28;20029;-69
2021/03/18 08:15:41;;;;;;;4.30;2.70;;;;;;;9.92;43.06;100056.13;5035100;28;20416;-70
2021/03/18 08:18:13;;;;;;;4.38;3.10;;;;;;;9.96;41.13;100050.66;5035018;28;20132;-70
2021/03/18 08:20:44;;;;;;;4.55;2.67;;;;;;;9.93;40.53;100035.50;5034994;28;20152;-69
2021/03/18 08:23:28;;;;;;;22.90;16.70;;;;;;;10.12;40.33;100047.81;5034874;28;20124;-69
2021/03/18 08:26:11;;;;;;;4.63;4.15;;;;;;;10.22;39.57;100053.59;5034817;28;20028;-69
2021/03/18 08:28:45;;;;;;;3.10;2.80;;;;;;;10.00;37.79;100050.72;5034841;28;20030;-70
2021/03/18 08:31:14;;;;;;;2.83;2.25;;;;;;;9.96;37.21;100047.88;5036076;28;20025;-69
2021/03/18 08:33:45;;;;;;;3.78;3.40;;;;;;;9.99;38.66;100047.13;5037734;28;20147;-69
2021/03/18 08:36:30;;;;;;;6.35;5.63;;;;;;;10.11;37.49;100049.00;5037937;28;20123;-70
2021/03/18 08:39:03;;;;;;;2.08;1.67;;;;;;;10.16;37.12;100049.50;5038436;28;20087;-70
2021/03/18 08:41:39;;;;;;;8.75;7.63;;;;;;;10.35;37.20;100043.22;5037893;28;20063;-70
2021/03/18 08:44:23;;;;;;;2.45;2.22;;;;;;;10.43;37.87;100047.75;5038672;28;20123;-69
2021/03/18 08:47:04;;;;;;;1.25;1.15;;;;;;;10.19;36.79;100028.53;5037756;28;20028;-70
2021/03/18 08:49:36;;;;;;;4.32;3.92;;;;;;;10.60;36.41;100032.63;5038609;28;20083;-70
2021/03/18 08:52:08;;;;;;;2.00;1.77;;;;;;;10.76;35.27;100040.88;5037723;28;20491;-69
2021/03/18 08:54:38;;;;;;;3.22;1.50;;;;;;;10.69;35.62;100043.50;5037635;28;20060;-69
2021/03/18 08:57:09;;;;;;;1.35;1.25;;;;;;;10.72;35.72;100034.44;5038439;28;20067;-70
2021/03/18 08:59:37;;;;;;;1.63;1.30;;;;;;;10.71;35.98;100030.84;5037621;28;20033;-70
2021/03/18 09:02:05;;;;;;;1.20;1.00;;;;;;;11.11;35.54;100031.56;5037170;28;20026;-69
2021/03/18 09:04:38;;;;;;;2.95;1.42;;;;;;;10.81;35.97;100032.19;5055110;28;20422;-70
2021/03/18 09:07:12;;;;;;;2.97;1.80;;;;;;;10.87;35.07;100033.53;5038107;28;20025;-70
2021/03/18 09:09:39;;;;;;;2.22;1.92;;;;;;;10.55;35.32;100030.13;5022181;28;20036;-69
2021/03/18 09:12:08;;;;;;;2.20;1.35;;;;;;;10.47;35.67;100037.50;5037596;28;20510;-69
2021/03/18 09:14:35;;;;;;;5.28;2.22;;;;;;;10.83;34.41;100035.44;5037598;28;20029;-69
2021/03/18 09:17:14;;;;;;;1.95;1.70;;;;;;;10.99;35.09;100036.16;5039731;28;20116;-70
2021/03/18 09:19:48;;;;;;;2.50;2.30;;;;;;;11.13;34.23;100034.78;5040384;28;20067;-69
2021/03/18 09:22:23;;;;;;;1.48;1.38;;;;;;;10.96;33.10;100020.16;5054819;28;20078;-70
2021/03/18 09:24:49;;;;;;;4.13;2.40;;;;;;;11.27;33.85;100029.47;5054655;28;20040;-69
2021/03/18 09:27:15;;;;;;;3.10;2.40;;;;;;;11.30;35.48;100017.59;5037742;28;20029;-69
2021/03/18 09:29:42;;;;;;;4.15;3.00;;;;;;;11.39;34.11;100020.13;5037216;28;20036;-70
2021/03/18 09:32:12;;;;;;;2.97;2.40;;;;;;;11.25;34.47;100023.50;5036752;28;20376;-70
2021/03/18 09:34:41;;;;;;;2.88;2.47;;;;;;;11.31;32.72;100030.34;5036997;28;20459;-70
2021/03/18 09:37:08;;;;;;;2.22;2.03;;;;;;;11.38;33.44;100024.91;5036790;28;20036;-70
2021/03/18 09:39:34;;;;;;;3.38;2.25;;;;;;;11.32;32.38;100020.00;5036999;28;20025;-69
2021/03/18 09:42:05;;;;;;;2.75;2.13;;;;;;;11.36;32.64;100021.69;5036655;28;20082;-69
2021/03/18 09:44:31;;;;;;;3.97;2.60;;;;;;;11.86;34.12;100021.69;5036569;28;20093;-69
2021/03/18 09:46:57;;;;;;;1.50;1.40;;;;;;;11.76;32.94;100028.69;5037467;28;20490;-70
2021/03/18 09:49:31;;;;;;;5.35;1.63;;;;;;;11.72;33.55;100025.06;5036662;28;20020;-70
2021/03/18 09:52:02;;;;;;;4.18;2.22;;;;;;;11.69;33.45;100023.00;5036510;28;20029;-70
2021/03/18 09:54:29;;;;;;;2.25;1.98;;;;;;;11.69;33.15;100017.44;5036795;28;20471;-70
2021/03/18 09:56:59;;;;;;;1.67;1.58;;;;;;;11.51;33.50;100017.97;5036764;28;20036;-70
2021/03/18 09:59:25;;;;;;;3.70;2.10;;;;;;;11.73;32.98;100023.88;5036447;28;20568;-70
2021/03/18 10:01:51;;;;;;;4.22;3.75;;;;;;;12.11;33.83;100022.06;5036899;28;20115;-70
2021/03/18 10:04:20;;;;;;;5.07;3.15;;;;;;;11.87;33.50;100018.53;5036664;28;20028;-70
2021/03/18 10:06:47;;;;;;;4.35;3.25;;;;;;;11.85;33.88;100014.53;5037104;28;20360;-70
2021/03/18 10:09:26;;;;;;;10.75;8.90;;;;;;;11.97;33.02;100014.28;5036727;28;20025;-70
2021/03/18 10:11:54;;;;;;;3.65;2.03;;;;;;;12.07;32.63;100022.00;5054638;28;20021;-70
2021/03/18 10:14:29;;;;;;;3.97;2.33;;;;;;;12.09;33.42;100018.84;5053547;28;20029;-70
2021/03/18 10:16:55;;;;;;;2.42;1.88;;;;;;;12.44;31.74;99997.00;5036188;28;20118;-70
2021/03/18 10:19:31;;;;;;;3.08;2.05;;;;;;;12.54;32.20;100021.44;5019950;28;20036;-70
2021/03/18 10:22:04;;;;;;;7.65;6.13;;;;;;;12.93;31.45;100023.06;5036269;28;20035;-70
2021/03/18 10:24:29;;;;;;;5.88;5.00;;;;;;;13.13;30.86;100009.72;5036535;28;20033;-70
2021/03/18 10:27:12;;;;;;;2.88;2.15;;;;;;;13.54;30.21;100013.31;5036007;28;20040;-70
2021/03/18 10:29:38;;;;;;;2.55;1.65;;;;;;;12.91;31.28;100009.50;5036033;28;20033;-70
2021/03/18 10:32:18;;;;;;;3.05;2.35;;;;;;;12.54;31.21;100013.06;5054389;28;20041;-70
2021/03/18 10:34:56;;;;;;;3.97;2.58;;;;;;;13.09;31.44;100013.28;5037410;28;20493;-70
2021/03/18 10:37:32;;;;;;;2.33;2.00;;;;;;;13.25;30.59;99989.91;5054612;28;20438;-70
2021/03/18 10:40:22;;;;;;;2.83;1.73;;;;;;;13.24;31.24;99999.47;5053754;28;20523;-70
2021/03/18 10:42:49;;;;;;;1.60;1.45;;;;;;;13.22;30.94;99996.28;5036459;28;20033;-70
2021/03/18 10:45:18;;;;;;;2.38;1.70;;;;;;;13.06;30.96;99996.50;5036473;28;20082;-70
2021/03/18 10:47:44;;;;;;;1.30;1.20;;;;;;;12.65;30.77;99990.06;5035758;28;20029;-70
2021/03/18 10:50:12;;;;;;;1.58;1.48;;;;;;;12.68;31.41;100000.50;5053658;28;20430;-70
2021/03/18 10:52:39;;;;;;;2.20;1.73;;;;;;;12.79;31.27;99996.63;5036241;28;20111;-70
2021/03/18 10:55:06;;;;;;;2.38;2.08;;;;;;;12.91;31.63;100001.13;5053520;28;20029;-70
2021/03/18 10:57:32;;;;;;;1.88;1.73;;;;;;;12.61;31.46;99998.41;5036137;28;20029;-70
2021/03/18 11:00:05;;;;;;;1.95;1.70;;;;;;;12.82;31.35;99995.03;5036009;28;20036;-70
2021/03/18 11:02:31;;;;;;;1.60;1.42;;;;;;;12.98;30.91;99990.03;5036269;28;20091;-70
2021/03/18 11:05:00;;;;;;;1.30;1.20;;;;;;;13.10;31.44;99983.34;5035920;28;20106;-70
2021/03/18 11:07:27;;;;;;;2.97;1.33;;;;;;;13.31;30.66;99971.59;5035588;28;20067;-70
2021/03/18 11:10:13;;;;;;;1.52;1.40;;;;;;;13.88;29.96;99972.00;5036419;28;20033;-70
2021/03/18 11:12:40;;;;;;;3.17;2.80;;;;;;;13.76;28.32;99972.34;5053847;28;20039;-71
2021/03/18 11:15:09;;;;;;;2.97;2.67;;;;;;;13.58;28.71;99964.66;5035519;28;20112;-70
2021/03/18 11:17:36;;;;;;;4.57;4.03;;;;;;;13.83;29.82;99966.78;5035416;28;20041;-70
2021/03/18 11:20:08;;;;;;;2.88;2.10;;;;;;;13.97;29.30;99972.47;5035439;28;20168;-70
2021/03/18 11:22:34;;;;;;;4.22;3.03;;;;;;;14.28;29.15;99973.03;5038617;28;20095;-70
2021/03/18 11:25:01;;;;;;;3.63;2.70;;;;;;;14.44;29.05;99967.91;5039682;28;20371;-70
2021/03/18 11:27:26;;;;;;;2.28;2.08;;;;;;;14.53;29.44;99957.16;5039563;28;20063;-70
2021/03/18 11:29:52;;;;;;;2.30;1.58;;;;;;;14.62;28.60;99959.56;5039450;28;20060;-70
2021/03/18 11:32:25;;;;;;;2.03;1.60;;;;;;;14.67;28.17;99957.19;5038764;28;20491;-70
2021/03/18 11:35:01;;;;;;;2.67;2.45;;;;;;;14.42;28.20;99954.28;5023883;28;20063;-70
2021/03/18 11:37:28;;;;;;;1.83;1.73;;;;;;;14.31;28.80;99952.63;5039683;28;20025;-70
2021/03/18 11:39:54;;;;;;;5.80;5.30;;;;;;;14.13;28.70;99950.56;5039075;28;20044;-70
2021/03/18 11:42:20;;;;;;;1.60;1.50;;;;;;;13.23;30.18;99942.00;5039017;28;20086;-70
2021/03/18 11:44:46;;;;;;;1.88;1.73;;;;;;;13.07;30.93;99951.41;5039240;28;20029;-70
2021/03/18 11:47:13;;;;;;;4.75;1.95;;;;;;;12.58;31.05;99916.25;5039699;28;20043;-70